Time;durP1;ratioP1;P1;durP2;ratioP2;P2;SDS_P1;SDS_P2;PMS_P1;PMS_P2;Temp;Humidity;BMP_temperature;BMP_pressure;BME280_temperature;BME280_humidity;BME280_pressure;Samples;Min_cycle;Max_cycle;Signal;HPM_P1;HPM_P2
2023/06/24 03:02:10;;;;;;;12.65;8.40;;;;;16.60;97106.00;;;;8277543;23;20300;-67
2023/06/24 03:06:17;;;;;;;11.38;8.32;;;;;16.70;97122.00;;;;8242410;28;20202;-67
2023/06/24 03:10:22;;;;;;;10.27;7.68;;;;;16.80;97125.00;;;;8231945;28;20210;-66
2023/06/24 03:14:25;;;;;;;11.55;7.75;;;;;16.90;97131.00;;;;8251355;28;20751;-66
2023/06/24 03:18:34;;;;;;;9.80;7.05;;;;;16.90;97132.00;;;;8252921;28;20199;-66
2023/06/24 03:22:45;;;;;;;11.45;8.27;;;;;17.00;97139.00;;;;8252708;28;20718;-66
2023/06/24 03:26:55;;;;;;;11.25;8.10;;;;;17.10;97144.00;;;;8253519;28;20199;-66
2023/06/24 03:30:59;;;;;;;9.80;7.40;;;;;17.20;97143.00;;;;8236504;28;20223;-66
2023/06/24 03:35:07;;;;;;;14.95;8.35;;;;;17.30;97157.00;;;;8252174;28;20262;-66
2023/06/24 03:39:11;;;;;;;9.82;6.80;;;;;17.30;97161.00;;;;8253270;28;20278;-67
2023/06/24 03:43:14;;;;;;;9.68;7.22;;;;;17.40;97161.00;;;;8251915;28;20260;-68
2023/06/24 03:47:17;;;;;;;9.80;7.55;;;;;17.40;97164.00;;;;8249930;28;20195;-67
2023/06/24 03:51:21;;;;;;;10.05;7.38;;;;;17.50;97180.00;;;;8252022;28;20202;-67
2023/06/24 03:55:29;;;;;;;13.10;7.43;;;;;17.50;97189.00;;;;8247576;28;20316;-66
2023/06/24 03:59:38;;;;;;;11.13;7.07;;;;;17.60;97194.00;;;;8258166;28;20226;-67
2023/06/24 04:03:43;;;;;;;9.90;7.50;;;;;17.60;97193.00;;;;8264308;28;20230;-66
2023/06/24 04:07:50;;;;;;;12.23;6.93;;;;;17.70;97200.00;;;;8262485;28;20203;-66
2023/06/24 04:11:53;;;;;;;9.52;6.45;;;;;17.80;97198.00;;;;8259646;28;20209;-66
2023/06/24 04:15:57;;;;;;;7.90;6.57;;;;;17.90;97200.00;;;;8264707;28;20223;-66
2023/06/24 04:20:02;;;;;;;9.25;6.38;;;;;17.90;97193.00;;;;8264342;28;20281;-66
2023/06/24 04:24:08;;;;;;;6.93;6.05;;;;;18.00;97196.00;;;;8264553;28;20219;-66
2023/06/24 04:28:11;;;;;;;7.80;6.18;;;;;18.10;97201.00;;;;8257635;28;20229;-67
2023/06/24 04:32:15;;;;;;;7.93;6.07;;;;;18.20;97201.00;;;;8259069;28;20278;-67
2023/06/24 04:36:23;;;;;;;7.53;6.18;;;;;18.30;97209.00;;;;8253736;28;20309;-67
2023/06/24 04:40:28;;;;;;;9.32;6.53;;;;;18.40;97216.00;;;;8262260;28;20677;-67
2023/06/24 04:44:31;;;;;;;11.50;6.47;;;;;18.60;97225.00;;;;8241645;28;20207;-67
2023/06/24 04:48:36;;;;;;;9.48;6.75;;;;;18.70;97223.00;;;;8257083;28;20290;-67
2023/06/24 04:52:39;;;;;;;8.85;6.25;;;;;18.70;97219.00;;;;8260662;28;20230;-68
2023/06/24 04:56:45;;;;;;;8.32;7.07;;;;;18.60;97217.00;;;;8258509;28;20262;-69
2023/06/24 05:00:51;;;;;;;7.97;6.80;;;;;18.60;97223.00;;;;8258989;28;20195;-68
2023/06/24 05:04:56;;;;;;;9.20;7.03;;;;;18.70;97220.00;;;;8265941;28;20222;-68
2023/06/24 05:08:59;;;;;;;7.45;6.18;;;;;19.00;97222.00;;;;8255751;28;20209;-68
2023/06/24 05:13:09;;;;;;;9.63;6.78;;;;;19.20;97233.00;;;;8258756;28;20242;-66
2023/06/24 05:17:16;;;;;;;9.13;6.95;;;;;19.50;97230.00;;;;8260549;28;20894;-67
2023/06/24 05:21:20;;;;;;;7.75;6.25;;;;;19.80;97236.00;;;;8257176;28;20194;-67
2023/06/24 05:25:28;;;;;;;9.13;7.00;;;;;20.00;97239.00;;;;8252465;28;20214;-67
2023/06/24 05:29:34;;;;;;;15.25;6.25;;;;;20.10;97236.00;;;;8255775;28;20285;-66
2023/06/24 05:33:50;;;;;;;10.80;6.57;;;;;20.20;97231.00;;;;8256330;28;20234;-67
2023/06/24 05:37:53;;;;;;;7.28;5.72;;;;;20.50;97249.00;;;;8253122;28;20294;-67
2023/06/24 05:41:57;;;;;;;10.07;6.40;;;;;20.70;97249.00;;;;8259021;28;20203;-67
2023/06/24 05:46:01;;;;;;;8.10;6.35;;;;;20.80;97247.00;;;;8256272;28;20205;-67
2023/06/24 05:50:05;;;;;;;8.15;6.10;;;;;21.00;97249.00;;;;8255826;28;20664;-67
2023/06/24 05:54:08;;;;;;;8.73;6.20;;;;;21.10;97246.00;;;;8256936;28;20278;-67
2023/06/24 05:58:12;;;;;;;7.25;5.88;;;;;21.10;97254.00;;;;8257396;28;20226;-67
2023/06/24 06:02:17;;;;;;;5.80;5.22;;;;;21.40;97256.00;;;;8253924;28;20671;-67
2023/06/24 06:06:22;;;;;;;7.32;5.55;;;;;21.30;97255.00;;;;8255692;28;20286;-66
2023/06/24 06:10:25;;;;;;;8.02;5.68;;;;;21.10;97252.00;;;;8254602;28;20297;-66
2023/06/24 06:14:28;;;;;;;6.85;5.63;;;;;21.50;97242.00;;;;8256666;28;20326;-66
2023/06/24 06:18:32;;;;;;;8.73;5.32;;;;;22.50;97257.00;;;;8261631;28;20238;-67
2023/06/24 06:22:42;;;;;;;6.53;5.22;;;;;23.20;97263.00;;;;8250773;28;20651;-67
2023/06/24 06:26:47;;;;;;;5.75;5.18;;;;;23.50;97247.00;;;;8259539;28;20206;-68
2023/06/24 06:30:50;;;;;;;7.75;5.28;;;;;23.90;97255.00;;;;8255453;28;20198;-68
2023/06/24 06:34:55;;;;;;;5.57;4.82;;;;;24.30;97254.00;;;;8259956;28;20633;-68
2023/06/24 06:38:58;;;;;;;5.85;5.00;;;;;24.60;97245.00;;;;8254823;28;20449;-67
2023/06/24 06:43:02;;;;;;;6.18;4.60;;;;;24.70;97248.00;;;;8256497;28;20195;-67
2023/06/24 06:47:06;;;;;;;4.75;4.35;;;;;24.90;97242.00;;;;8253993;28;20199;-67
2023/06/24 06:51:14;;;;;;;4.47;4.03;;;;;25.10;97253.00;;;;8253924;28;20207;-67
2023/06/24 06:55:17;;;;;;;5.38;4.10;;;;;25.40;97236.00;;;;8254773;28;20286;-67
2023/06/24 06:59:21;;;;;;;5.38;4.63;;;;;25.40;97248.00;;;;8246381;28;20226;-68
2023/06/24 07:03:29;;;;;;;4.72;4.25;;;;;25.10;97243.00;;;;8235517;28;20233;-69
2023/06/24 07:07:33;;;;;;;5.43;4.63;;;;;25.40;97247.00;;;;8257483;28;20211;-68
2023/06/24 07:11:38;;;;;;;5.55;4.78;;;;;25.50;97242.00;;;;8254560;28;20293;-69
2023/06/24 07:15:44;;;;;;;5.00;4.50;;;;;25.50;97243.00;;;;8249896;28;20250;-69
2023/06/24 07:19:48;;;;;;;4.15;3.75;;;;;25.70;97248.00;;;;8251053;28;20237;-68
2023/06/24 07:23:55;;;;;;;4.10;3.70;;;;;26.00;97240.00;;;;8250375;28;20205;-68
2023/06/24 07:28:01;;;;;;;4.78;4.32;;;;;26.40;97246.00;;;;8261623;28;20255;-69
2023/06/24 07:32:07;;;;;;;7.57;4.60;;;;;26.60;97256.00;;;;8242145;28;20217;-70
2023/06/24 07:36:14;;;;;;;5.22;4.72;;;;;27.00;97259.00;;;;8261445;28;20645;-69
2023/06/24 07:40:20;;;;;;;6.22;4.78;;;;;27.20;97259.00;;;;8258012;28;20221;-65
2023/06/24 07:44:23;;;;;;;6.00;5.38;;;;;27.00;97269.00;;;;8259987;28;20226;-65
2023/06/24 07:48:26;;;;;;;6.80;5.40;;;;;26.40;97264.00;;;;8255694;28;20840;-66
2023/06/24 07:52:29;;;;;;;6.60;5.13;;;;;26.20;97258.00;;;;8257987;28;20205;-66
2023/06/24 07:56:34;;;;;;;7.28;5.20;;;;;26.60;97262.00;;;;8259119;28;20288;-67
2023/06/24 08:00:38;;;;;;;7.18;4.97;;;;;26.50;97259.00;;;;8262849;28;20205;-65
2023/06/24 08:04:42;;;;;;;12.23;5.55;;;;;25.80;97267.00;;;;8248072;28;20262;-67
2023/06/24 08:08:46;;;;;;;8.02;5.75;;;;;25.90;97259.00;;;;8258687;28;20198;-67
2023/06/24 08:12:50;;;;;;;10.40;5.82;;;;;25.70;97263.00;;;;8262946;28;20729;-67
2023/06/24 08:16:54;;;;;;;6.32;4.82;;;;;25.50;97249.00;;;;8253815;28;20337;-68
2023/06/24 08:21:00;;;;;;;5.30;4.80;;;;;26.90;97252.00;;;;8257301;28;20290;-67
2023/06/24 08:25:03;;;;;;;6.55;4.15;;;;;28.40;97257.00;;;;8255464;28;20210;-68
2023/06/24 08:29:08;;;;;;;7.57;3.92;;;;;29.10;97263.00;;;;8254577;28;20206;-67
2023/06/24 08:33:14;;;;;;;6.03;4.40;;;;;27.50;97248.00;;;;8256120;28;20207;-68
2023/06/24 08:37:17;;;;;;;5.13;4.15;;;;;26.30;97259.00;;;;8261968;28;20346;-68
2023/06/24 08:41:20;;;;;;;5.30;4.80;;;;;25.70;97247.00;;;;8263448;28;20237;-68
2023/06/24 08:45:25;;;;;;;4.43;4.00;;;;;27.10;97246.00;;;;8261409;28;20878;-68
2023/06/24 08:49:31;;;;;;;5.75;4.50;;;;;28.20;97244.00;;;;8256402;28;20813;-68
2023/06/24 08:53:35;;;;;;;4.18;3.80;;;;;29.70;97248.00;;;;8264359;28;20233;-68
2023/06/24 08:57:38;;;;;;;5.45;4.50;;;;;29.90;97256.00;;;;8267809;28;20227;-68
2023/06/24 09:01:58;;;;;;;11.23;6.13;;;;;29.30;97247.00;;;;8256799;28;20827;-67
2023/06/24 09:06:01;;;;;;;9.30;5.10;;;;;29.70;97252.00;;;;8256435;28;20198;-68
2023/06/24 09:10:04;;;;;;;7.57;4.15;;;;;30.80;97260.00;;;;8257607;28;20202;-68
2023/06/24 09:14:13;;;;;;;4.75;4.32;;;;;30.10;97262.00;;;;8256734;28;20230;-68
2023/06/24 09:18:18;;;;;;;4.35;3.95;;;;;29.40;97258.00;;;;8259938;28;20770;-67
2023/06/24 09:22:21;;;;;;;4.05;3.70;;;;;30.20;97246.00;;;;8261506;28;20210;-68
2023/06/24 09:26:25;;;;;;;4.05;3.65;;;;;31.30;97252.00;;;;8260593;28;20959;-68
2023/06/24 09:30:41;;;;;;;4.35;4.00;;;;;31.20;97253.00;;;;8253424;28;20195;-68
2023/06/24 09:34:47;;;;;;;4.88;4.18;;;;;30.00;97248.00;;;;8254840;28;20209;-67
2023/06/24 09:38:57;;;;;;;8.68;4.20;;;;;29.60;97246.00;;;;8259640;28;20233;-67
2023/06/24 09:43:05;;;;;;;6.32;3.40;;;;;30.50;97249.00;;;;8257704;28;20195;-67
2023/06/24 09:47:11;;;;;;;3.65;3.22;;;;;31.50;97242.00;;;;8251757;28;20298;-67
2023/06/24 09:51:24;;;;;;;6.35;4.15;;;;;32.20;97240.00;;;;8253937;28;20226;-67
2023/06/24 09:55:29;;;;;;;4.20;3.80;;;;;30.40;97236.00;;;;8253227;28;20234;-67
2023/06/24 09:59:36;;;;;;;3.67;3.38;;;;;29.10;97234.00;;;;8259287;28;20234;-67
2023/06/24 10:03:40;;;;;;;3.78;3.22;;;;;29.60;97230.00;;;;8266929;28;20281;-67
2023/06/24 10:07:47;;;;;;;4.63;2.63;;;;;31.40;97225.00;;;;8252542;28;20195;-66
2023/06/24 10:11:53;;;;;;;4.13;3.50;;;;;32.70;97220.00;;;;8254747;28;20637;-67
2023/06/24 10:15:57;;;;;;;3.72;3.42;;;;;32.30;97227.00;;;;8257020;28;20203;-66
2023/06/24 10:20:05;;;;;;;7.65;3.30;;;;;30.70;97224.00;;;;8256244;28;20316;-66
2023/06/24 10:24:13;;;;;;;3.80;3.50;;;;;30.40;97224.00;;;;8249790;28;20564;-66
2023/06/24 10:28:18;;;;;;;3.92;3.10;;;;;30.80;97217.00;;;;8261218;28;20570;-68
2023/06/24 10:32:23;;;;;;;3.05;2.85;;;;;31.60;97202.00;;;;8262308;28;20293;-66
2023/06/24 10:36:38;;;;;;;4.00;3.22;;;;;33.10;97199.00;;;;8254033;28;20274;-67
2023/06/24 10:40:45;;;;;;;5.57;3.13;;;;;34.20;97200.00;;;;8256800;28;20675;-67
2023/06/24 10:44:50;;;;;;;3.50;3.20;;;;;34.30;97201.00;;;;8263960;28;20301;-67
2023/06/24 10:48:53;;;;;;;3.88;3.03;;;;;34.00;97192.00;;;;8247548;28;20684;-66
2023/06/24 10:53:01;;;;;;;5.00;2.65;;;;;33.70;97185.00;;;;8255217;28;20652;-66
2023/06/24 10:57:09;;;;;;;4.43;2.90;;;;;33.70;97175.00;;;;8253184;28;20559;-68
2023/06/24 11:01:15;;;;;;;4.43;2.70;;;;;33.90;97170.00;;;;8254384;28;20234;-66
2023/06/24 11:05:19;;;;;;;3.35;2.80;;;;;31.70;97171.00;;;;8248469;28;20277;-67
2023/06/24 11:09:26;;;;;;;6.28;3.20;;;;;29.80;97162.00;;;;8250918;28;20482;-67
2023/06/24 11:13:34;;;;;;;3.90;3.60;;;;;29.30;97157.00;;;;8252601;28;20203;-67
2023/06/24 11:17:38;;;;;;;3.58;3.28;;;;;30.40;97154.00;;;;8251924;28;21052;-66
2023/06/24 11:21:41;;;;;;;52.42;5.45;;;;;31.00;97146.00;;;;8249412;28;20217;-73
2023/06/24 11:25:47;;;;;;;4.07;3.10;;;;;31.60;97146.00;;;;8250398;28;20230;-69
2023/06/24 11:29:52;;;;;;;3.50;3.20;;;;;31.90;97145.00;;;;8254177;28;20557;-67
2023/06/24 11:33:58;;;;;;;5.82;3.42;;;;;30.30;97139.00;;;;8252594;28;20301;-67
2023/06/24 11:38:01;;;;;;;4.38;3.13;;;;;30.00;97131.00;;;;8245201;28;20326;-67
2023/06/24 11:42:07;;;;;;;4.90;3.00;;;;;31.10;97123.00;;;;8257087;28;20416;-68
2023/06/24 11:46:22;;;;;;;3.63;3.33;;;;;32.40;97119.00;;;;8247355;28;20230;-66
2023/06/24 11:50:27;;;;;;;3.72;3.42;;;;;33.30;97120.00;;;;8245423;28;20206;-66
2023/06/24 11:54:42;;;;;;;3.88;3.50;;;;;33.60;97119.00;;;;8244148;28;20560;-67
2023/06/24 11:58:51;;;;;;;3.92;3.22;;;;;33.30;97122.00;;;;8248605;28;20825;-65
2023/06/24 12:02:57;;;;;;;3.53;3.20;;;;;33.80;97111.00;;;;8253464;28;20284;-69
2023/06/24 12:07:02;;;;;;;4.78;2.83;;;;;34.60;97119.00;;;;8244364;28;20213;-66
2023/06/24 12:11:10;;;;;;;3.22;3.00;;;;;33.50;97116.00;;;;8247915;28;20254;-68
2023/06/24 12:15:14;;;;;;;3.88;3.42;;;;;33.50;97105.00;;;;8245623;28;20641;-70
2023/06/24 12:19:21;;;;;;;3.47;3.17;;;;;34.60;97104.00;;;;8256395;28;20228;-71
2023/06/24 12:23:24;;;;;;;4.65;3.38;;;;;35.20;97105.00;;;;8260897;28;20289;-67
2023/06/24 12:27:28;;;;;;;7.65;3.22;;;;;35.30;97097.00;;;;8255235;28;20222;-72
2023/06/24 12:31:31;;;;;;;4.05;3.22;;;;;34.90;97098.00;;;;8274635;28;20294;-70
2023/06/24 12:35:36;;;;;;;3.40;3.10;;;;;32.50;97098.00;;;;8244203;28;20209;-65
2023/06/24 12:39:41;;;;;;;3.90;3.50;;;;;30.80;97093.00;;;;8262433;28;20322;-71
2023/06/24 12:43:44;;;;;;;3.67;3.28;;;;;31.10;97079.00;;;;8256455;28;20340;-65
2023/06/24 12:47:53;;;;;;;3.30;3.00;;;;;32.00;97070.00;;;;8258685;28;20287;-70
2023/06/24 12:51:58;;;;;;;3.78;3.47;;;;;31.70;97087.00;;;;8266177;28;20250;-69
2023/06/24 12:56:02;;;;;;;3.72;3.25;;;;;32.30;97082.00;;;;8253726;28;20623;-69
2023/06/24 13:00:06;;;;;;;3.55;3.20;;;;;32.90;97078.00;;;;8256398;28;20716;-67
2023/06/24 13:04:11;;;;;;;4.15;3.25;;;;;32.80;97088.00;;;;8260362;28;20234;-68
2023/06/24 13:08:17;;;;;;;3.65;3.35;;;;;32.10;97080.00;;;;8263059;28;20767;-68
2023/06/24 13:12:22;;;;;;;3.30;3.10;;;;;32.10;97069.00;;;;8264088;28;20199;-69
2023/06/24 13:16:25;;;;;;;3.72;3.20;;;;;32.70;97062.00;;;;8264215;28;20211;-68
2023/06/24 13:20:33;;;;;;;3.70;3.40;;;;;32.30;97071.00;;;;8270277;28;20241;-68
2023/06/24 13:24:39;;;;;;;3.45;3.20;;;;;31.20;97068.00;;;;8258058;28;20203;-72
2023/06/24 13:28:43;;;;;;;3.53;3.30;;;;;31.90;97055.00;;;;8253141;28;20198;-67
2023/06/24 13:32:49;;;;;;;6.00;3.40;;;;;31.90;97055.00;;;;8257275;28;20664;-69
2023/06/24 13:36:52;;;;;;;3.78;3.22;;;;;30.80;97062.00;;;;8256641;28;20203;-70
2023/06/24 13:41:00;;;;;;;4.10;3.00;;;;;30.20;97057.00;;;;8254892;28;20297;-69
2023/06/24 13:45:06;;;;;;;3.08;2.83;;;;;30.80;97041.00;;;;8254491;28;20206;-66
2023/06/24 13:49:09;;;;;;;3.38;3.13;;;;;31.30;97059.00;;;;8262388;28;20238;-69
2023/06/24 13:53:15;;;;;;;3.65;3.35;;;;;30.10;97050.00;;;;8261556;28;20195;-70
2023/06/24 13:57:22;;;;;;;5.97;3.45;;;;;29.30;97044.00;;;;8261009;28;20195;-70
2023/06/24 14:01:28;;;;;;;4.25;3.38;;;;;28.90;97047.00;;;;8252651;28;20892;-71
2023/06/24 14:05:32;;;;;;;4.13;3.70;;;;;29.30;97047.00;;;;8257992;28;20682;-66
2023/06/24 14:09:36;;;;;;;6.45;3.30;;;;;30.00;97044.00;;;;8263051;28;20213;-65
2023/06/24 14:13:41;;;;;;;6.10;3.20;;;;;29.70;97032.00;;;;8256495;28;20294;-67
2023/06/24 14:17:48;;;;;;;3.88;3.55;;;;;29.20;97041.00;;;;8266169;28;20637;-71
2023/06/24 14:21:51;;;;;;;5.18;3.30;;;;;29.70;97032.00;;;;8250415;28;20266;-68
2023/06/24 14:25:54;;;;;;;3.00;2.80;;;;;31.40;97020.00;;;;8254681;28;20241;-68
2023/06/24 14:29:59;;;;;;;3.63;3.33;;;;;32.40;97018.00;;;;8258024;28;20187;-66
2023/06/24 14:34:02;;;;;;;4.03;3.65;;;;;31.40;97019.00;;;;8253274;28;20290;-70
2023/06/24 14:38:06;;;;;;;5.57;3.33;;;;;30.40;97018.00;;;;8237948;28;20210;-68
2023/06/24 14:42:09;;;;;;;3.35;3.10;;;;;29.80;97014.00;;;;8252507;28;20230;-68
2023/06/24 14:46:15;;;;;;;3.38;3.08;;;;;30.30;97010.00;;;;8259248;28;20232;-66
2023/06/24 14:50:21;;;;;;;3.75;3.45;;;;;30.80;97002.00;;;;8255715;28;20203;-67
2023/06/24 14:54:24;;;;;;;4.72;3.70;;;;;31.30;97005.00;;;;8262624;28;20206;-66
2023/06/24 14:58:27;;;;;;;5.97;3.78;;;;;32.00;96992.00;;;;8251435;28;20225;-68
2023/06/24 15:02:34;;;;;;;3.28;2.97;;;;;32.80;96988.00;;;;8257942;28;20710;-67
2023/06/24 15:06:40;;;;;;;4.82;3.33;;;;;32.10;97000.00;;;;8262095;28;20203;-66
2023/06/24 15:10:46;;;;;;;3.72;3.22;;;;;31.60;97005.00;;;;8252951;28;20685;-65
2023/06/24 15:14:56;;;;;;;4.20;3.80;;;;;31.60;96986.00;;;;8249346;28;20522;-66
2023/06/24 15:19:04;;;;;;;3.05;2.85;;;;;31.70;96992.00;;;;8255579;28;20720;-65
2023/06/24 15:23:07;;;;;;;3.70;3.40;;;;;31.30;96991.00;;;;8254545;28;20199;-69
2023/06/24 15:27:10;;;;;;;3.42;2.95;;;;;31.50;96987.00;;;;8253657;28;20800;-66
2023/06/24 15:31:13;;;;;;;3.78;3.33;;;;;32.10;96990.00;;;;8252065;28;20286;-69
2023/06/24 15:35:22;;;;;;;3.40;3.10;;;;;32.50;96976.00;;;;8253986;28;20206;-66
2023/06/24 15:39:26;;;;;;;3.33;3.10;;;;;33.30;96979.00;;;;8252718;28;20253;-69
2023/06/24 15:43:31;;;;;;;3.03;2.80;;;;;32.90;96983.00;;;;8253380;28;20660;-71
2023/06/24 15:47:38;;;;;;;3.75;3.40;;;;;32.30;96976.00;;;;8253396;28;20234;-67
2023/06/24 15:51:44;;;;;;;3.92;3.05;;;;;31.20;96975.00;;;;8256814;28;20290;-65
2023/06/24 15:55:48;;;;;;;3.60;3.30;;;;;30.70;96975.00;;;;8259951;28;20239;-68
2023/06/24 15:59:54;;;;;;;3.85;3.40;;;;;29.90;96966.00;;;;8259818;28;20589;-65
2023/06/24 16:03:57;;;;;;;6.70;4.00;;;;;30.20;96966.00;;;;8259498;28;20226;-65
2023/06/24 16:08:05;;;;;;;4.05;3.65;;;;;30.90;96968.00;;;;8260534;28;20559;-69
2023/06/24 16:12:09;;;;;;;3.80;3.50;;;;;30.90;96962.00;;;;8258670;28;20676;-67
2023/06/24 16:16:15;;;;;;;4.63;3.45;;;;;30.90;96971.00;;;;8259764;28;20727;-66
2023/06/24 16:20:18;;;;;;;7.88;3.85;;;;;31.00;96968.00;;;;8259176;28;20242;-68
2023/06/24 16:24:23;;;;;;;4.65;4.18;;;;;30.90;96968.00;;;;8266628;28;20198;-70
2023/06/24 16:28:26;;;;;;;4.53;4.13;;;;;30.80;96965.00;;;;8258504;28;20217;-66
2023/06/24 16:32:34;;;;;;;6.85;4.57;;;;;31.00;96965.00;;;;8251654;28;20250;-66
2023/06/24 16:36:40;;;;;;;4.53;3.95;;;;;31.50;96957.00;;;;8259544;28;20652;-71
2023/06/24 16:40:45;;;;;;;5.63;3.92;;;;;31.90;96955.00;;;;8259171;28;20895;-68
2023/06/24 16:44:48;;;;;;;5.07;4.32;;;;;32.40;96955.00;;;;8258350;28;20319;-67
2023/06/24 16:48:51;;;;;;;4.63;4.22;;;;;32.50;96955.00;;;;8258561;28;20618;-69
2023/06/24 16:52:54;;;;;;;5.95;4.25;;;;;32.60;96957.00;;;;8258402;28;20282;-68
2023/06/24 16:57:05;;;;;;;5.18;4.63;;;;;32.40;96957.00;;;;8258298;28;20191;-67
2023/06/24 17:01:09;;;;;;;4.40;3.88;;;;;32.50;96959.00;;;;8257205;28;20923;-66
2023/06/24 17:05:13;;;;;;;5.28;4.50;;;;;32.50;96951.00;;;;8258773;28;20238;-69
2023/06/24 17:09:18;;;;;;;5.40;4.35;;;;;32.50;96952.00;;;;8241071;28;20203;-67
2023/06/24 17:13:22;;;;;;;5.57;4.10;;;;;32.70;96950.00;;;;8257126;28;20219;-72
2023/06/24 17:17:32;;;;;;;5.25;4.75;;;;;33.10;96944.00;;;;8258685;28;20209;-66
2023/06/24 17:21:37;;;;;;;5.28;4.47;;;;;33.10;96949.00;;;;8257347;28;20237;-68
2023/06/24 17:25:40;;;;;;;7.38;4.47;;;;;32.90;96945.00;;;;8257550;28;20285;-68
2023/06/24 17:29:45;;;;;;;4.43;4.03;;;;;33.00;96938.00;;;;8257108;28;20211;-66
2023/06/24 17:33:51;;;;;;;6.15;4.43;;;;;33.30;96941.00;;;;8257453;28;20282;-68
2023/06/24 17:37:54;;;;;;;5.00;4.50;;;;;33.50;96940.00;;;;8256194;28;20199;-71
2023/06/24 17:42:00;;;;;;;4.97;4.47;;;;;33.30;96948.00;;;;8255516;28;20226;-68
2023/06/24 17:46:15;;;;;;;5.18;4.35;;;;;33.30;96943.00;;;;8257409;28;20290;-66
2023/06/24 17:50:22;;;;;;;4.80;3.97;;;;;33.20;96943.00;;;;8255581;28;20199;-66
2023/06/24 17:54:25;;;;;;;5.05;4.55;;;;;32.80;96939.00;;;;8256860;28;20230;-69
2023/06/24 17:58:30;;;;;;;5.97;4.50;;;;;32.00;96932.00;;;;8256235;28;20213;-66
2023/06/24 18:02:34;;;;;;;5.47;4.38;;;;;30.90;96936.00;;;;8256300;28;20322;-67
2023/06/24 18:06:41;;;;;;;5.22;4.72;;;;;29.80;96943.00;;;;8253822;28;20305;-68
2023/06/24 18:10:47;;;;;;;5.40;4.68;;;;;29.00;96938.00;;;;8255117;28;20930;-66
2023/06/24 18:14:56;;;;;;;5.18;4.60;;;;;28.30;96936.00;;;;8254812;28;20206;-66
2023/06/24 18:19:01;;;;;;;6.85;4.20;;;;;27.80;96932.00;;;;8255877;28;20229;-67
2023/06/24 18:23:04;;;;;;;6.05;4.22;;;;;27.30;96926.00;;;;8254251;28;20302;-66
2023/06/24 18:27:10;;;;;;;5.35;4.70;;;;;26.90;96930.00;;;;8255147;28;20671;-67
2023/06/24 18:31:13;;;;;;;5.70;4.80;;;;;26.50;96922.00;;;;8254366;28;20227;-68
2023/06/24 18:35:19;;;;;;;9.20;4.60;;;;;26.00;96920.00;;;;8254636;28;20269;-64
2023/06/24 18:39:29;;;;;;;5.90;4.30;;;;;25.50;96916.00;;;;8255348;28;20203;-67
2023/06/24 18:43:32;;;;;;;5.15;4.63;;;;;25.00;96923.00;;;;8248087;28;20292;-66
2023/06/24 18:47:35;;;;;;;8.13;4.90;;;;;24.70;96917.00;;;;8253850;28;20199;-68
2023/06/24 18:51:40;;;;;;;8.77;4.80;;;;;24.30;96921.00;;;;8255337;28;20202;-67
2023/06/24 18:55:45;;;;;;;5.25;4.55;;;;;23.90;96912.00;;;;8254933;28;20278;-66
2023/06/24 18:59:48;;;;;;;5.15;4.63;;;;;23.60;96916.00;;;;8255046;28;20238;-65
2023/06/24 19:03:51;;;;;;;5.47;4.55;;;;;23.30;96921.00;;;;8253840;28;20258;-66
2023/06/24 19:07:56;;;;;;;4.93;4.25;;;;;23.10;96920.00;;;;8254276;28;20205;-67
2023/06/24 19:12:00;;;;;;;8.25;5.40;;;;;22.90;96918.00;;;;8254163;28;20234;-64
2023/06/24 19:16:05;;;;;;;7.60;5.03;;;;;22.60;96918.00;;;;8254742;28;20282;-66
2023/06/24 19:20:10;;;;;;;5.80;4.95;;;;;22.30;96922.00;;;;8236050;28;20294;-64
2023/06/24 19:24:19;;;;;;;6.07;4.78;;;;;22.00;96919.00;;;;8253759;28;20641;-67
2023/06/24 19:28:22;;;;;;;6.45;5.22;;;;;21.70;96928.00;;;;8253927;28;20210;-66
2023/06/24 19:32:28;;;;;;;7.13;5.18;;;;;21.40;96928.00;;;;8253586;28;20302;-68
2023/06/24 19:36:31;;;;;;;6.25;4.80;;;;;21.10;96924.00;;;;8253141;28;20199;-66
2023/06/24 19:40:37;;;;;;;7.90;4.78;;;;;20.80;96923.00;;;;8254198;28;20337;-65
2023/06/24 19:44:40;;;;;;;6.80;5.32;;;;;20.60;96930.00;;;;8254964;28;20234;-68
2023/06/24 19:48:44;;;;;;;9.07;5.20;;;;;20.30;96937.00;;;;8253974;28;20198;-67
2023/06/24 19:52:47;;;;;;;7.13;5.35;;;;;20.10;96939.00;;;;8254606;28;20645;-70
2023/06/24 19:56:52;;;;;;;8.52;5.03;;;;;19.90;96943.00;;;;8254879;28;20225;-65
2023/06/24 20:00:55;;;;;;;10.95;5.30;;;;;19.60;96952.00;;;;8253322;28;20234;-65
2023/06/24 20:04:58;;;;;;;9.48;5.50;;;;;19.40;96941.00;;;;8254073;28;20235;-64
2023/06/24 20:09:05;;;;;;;7.40;5.32;;;;;19.20;96941.00;;;;8252131;28;20205;-69
2023/06/24 20:13:11;;;;;;;10.05;5.45;;;;;19.00;96935.00;;;;8253215;28;20202;-69
2023/06/24 20:17:14;;;;;;;8.32;5.22;;;;;18.80;96938.00;;;;8253201;28;20620;-70
2023/06/24 20:21:20;;;;;;;8.25;5.20;;;;;18.70;96938.00;;;;8253732;28;20215;-65
2023/06/24 20:25:25;;;;;;;9.82;5.70;;;;;18.70;96931.00;;;;8252232;28;20234;-64
2023/06/24 20:29:30;;;;;;;8.20;5.05;;;;;18.60;96936.00;;;;8245807;28;20207;-67
2023/06/24 20:33:33;;;;;;;7.65;5.32;;;;;18.50;96930.00;;;;8254075;28;20214;-65
2023/06/24 20:37:36;;;;;;;9.27;5.60;;;;;18.50;96926.00;;;;8256053;28;20289;-66
2023/06/24 20:41:40;;;;;;;7.10;5.22;;;;;18.40;96926.00;;;;8259930;28;20230;-65
2023/06/24 20:45:59;;;;;;;9.15;5.20;;;;;18.40;96921.00;;;;8259290;28;20291;-65
2023/06/24 20:50:02;;;;;;;9.18;5.00;;;;;18.40;96924.00;;;;8259725;28;20572;-68
2023/06/24 20:54:05;;;;;;;7.72;5.22;;;;;18.40;96921.00;;;;8256436;28;20202;-64
2023/06/24 20:58:09;;;;;;;7.55;5.30;;;;;18.30;96927.00;;;;8258631;28;20203;-73
2023/06/24 21:02:17;;;;;;;8.52;5.22;;;;;18.30;96927.00;;;;8255989;28;20250;-68
2023/06/24 21:06:20;;;;;;;6.45;4.93;;;;;18.20;96923.00;;;;8247268;28;20290;-66
2023/06/24 21:10:26;;;;;;;7.65;5.50;;;;;18.20;96935.00;;;;8251417;28;20207;-65
2023/06/24 21:14:31;;;;;;;7.90;5.38;;;;;18.20;96935.00;;;;8254938;28;20285;-66
2023/06/24 21:18:36;;;;;;;9.35;5.65;;;;;18.10;96929.00;;;;8253503;28;20245;-66
2023/06/24 21:22:41;;;;;;;12.38;5.60;;;;;18.10;96936.00;;;;8236594;28;20305;-66
2023/06/24 21:26:45;;;;;;;8.90;5.97;;;;;18.00;96930.00;;;;8255253;28;20241;-67
2023/06/24 21:30:49;;;;;;;6.95;5.05;;;;;18.00;96927.00;;;;8252721;28;20281;-63
2023/06/24 21:34:57;;;;;;;7.15;5.45;;;;;17.90;96929.00;;;;8253638;28;20249;-66
2023/06/24 21:39:01;;;;;;;9.60;6.20;;;;;17.80;96938.00;;;;8236419;28;20796;-63
2023/06/24 21:43:07;;;;;;;7.80;5.38;;;;;17.60;96938.00;;;;8240168;28;20227;-63
2023/06/24 21:47:10;;;;;;;9.00;5.68;;;;;17.50;96938.00;;;;8255962;28;20796;-64
2023/06/24 21:51:15;;;;;;;8.55;5.53;;;;;17.40;96931.00;;;;8256399;28;20224;-65
2023/06/24 21:55:21;;;;;;;9.85;5.72;;;;;17.30;96938.00;;;;8257531;28;20281;-63
2023/06/24 21:59:27;;;;;;;8.45;5.18;;;;;17.30;96941.00;;;;8250147;28;20304;-65
2023/06/24 22:03:30;;;;;;;10.95;5.75;;;;;17.10;96944.00;;;;8254211;28;20679;-66
2023/06/24 22:07:35;;;;;;;9.23;6.35;;;;;17.00;96937.00;;;;8254111;28;20399;-67
2023/06/24 22:11:41;;;;;;;12.07;6.28;;;;;16.70;96936.00;;;;8251363;28;20297;-67
2023/06/24 22:15:44;;;;;;;11.93;6.30;;;;;16.60;96934.00;;;;8249967;28;20199;-66
2023/06/24 22:19:47;;;;;;;8.25;5.72;;;;;16.60;96930.00;;;;8253138;28;20235;-70
2023/06/24 22:23:52;;;;;;;10.15;6.30;;;;;16.60;96934.00;;;;8260135;28;20265;-66
2023/06/24 22:27:58;;;;;;;12.50;5.80;;;;;16.60;96934.00;;;;8257389;28;20298;-69
2023/06/24 22:32:05;;;;;;;9.52;5.97;;;;;16.60;96931.00;;;;8255815;28;20250;-67
2023/06/24 22:36:11;;;;;;;9.48;5.85;;;;;16.50;96934.00;;;;8254329;28;20326;-65
2023/06/24 22:40:16;;;;;;;10.95;5.78;;;;;16.50;96925.00;;;;8252464;28;20310;-65
2023/06/24 22:44:22;;;;;;;11.02;5.30;;;;;16.40;96925.00;;;;8253226;28;20249;-66
2023/06/24 22:48:28;;;;;;;7.45;5.85;;;;;16.40;96929.00;;;;8251941;28;20201;-70
2023/06/24 22:52:33;;;;;;;11.60;6.05;;;;;16.30;96925.00;;;;8253621;28;20206;-67
2023/06/24 22:56:37;;;;;;;9.30;6.53;;;;;16.20;96920.00;;;;8253016;28;20329;-65
2023/06/24 23:00:43;;;;;;;8.73;6.18;;;;;16.10;96923.00;;;;8251681;28;20206;-67
2023/06/24 23:04:47;;;;;;;8.35;5.97;;;;;16.00;96910.00;;;;8246334;28;20244;-65
2023/06/24 23:08:51;;;;;;;10.18;5.65;;;;;16.00;96921.00;;;;8247976;28;20187;-68
2023/06/24 23:13:00;;;;;;;9.77;6.15;;;;;16.00;96915.00;;;;8252844;28;20560;-67
2023/06/24 23:17:06;;;;;;;10.07;5.95;;;;;16.00;96914.00;;;;8252275;28;20202;-65
2023/06/24 23:21:10;;;;;;;10.00;5.97;;;;;15.90;96911.00;;;;8251473;28;20210;-65
2023/06/24 23:25:18;;;;;;;9.23;5.80;;;;;15.90;96909.00;;;;8256229;28;20720;-65